Time;durP1;ratioP1;P1;durP2;ratioP2;P2;SDS_P1;SDS_P2;PMS_P1;PMS_P2;Temp;Humidity;BMP_temperature;BMP_pressure;BME280_temperature;BME280_humidity;BME280_pressure;Samples;Min_cycle;Max_cycle;Signal;HPM_P1;HPM_P2
2024/03/13 00:00:14;;;;;;;73.60;27.38;;;3.50;99.90;;;-148.53;100.00;63986.66;5017422;28;20176;-81
2024/03/13 00:02:45;;;;;;;74.80;27.40;;;3.50;99.90;;;-148.53;100.00;63986.66;5038479;28;20099;-81
2024/03/13 00:05:11;;;;;;;75.25;28.42;;;3.40;99.90;;;-148.53;100.00;63986.66;5015908;28;20026;-81
2024/03/13 00:07:38;;;;;;;78.78;27.48;;;3.40;99.90;;;-148.53;100.00;63986.66;5027225;28;20493;-81
2024/03/13 00:10:08;;;;;;;71.45;27.48;;;3.30;99.90;;;-148.53;100.00;63986.66;5024656;28;20042;-81
2024/03/13 00:12:34;;;;;;;75.18;27.67;;;3.30;99.90;;;-148.53;100.00;63986.66;5033040;28;20049;-80
2024/03/13 00:15:03;;;;;;;78.53;28.67;;;3.40;99.90;;;-148.53;100.00;63986.66;5013157;28;20030;-80
2024/03/13 00:17:30;;;;;;;80.45;28.30;;;3.40;99.90;;;-148.53;100.00;63986.66;5017565;28;20053;-81
2024/03/13 00:19:56;;;;;;;83.20;29.08;;;3.40;99.90;;;-148.53;100.00;63986.66;5028555;28;20121;-80
2024/03/13 00:22:24;;;;;;;78.75;27.55;;;3.40;99.90;;;-148.53;100.00;63986.66;5016362;28;20449;-80
2024/03/13 00:24:56;;;;;;;74.70;28.05;;;3.30;99.90;;;-148.53;100.00;63986.66;5025127;28;20030;-81
2024/03/13 00:27:24;;;;;;;70.57;26.83;;;3.20;99.90;;;-148.53;100.00;63986.66;5012575;28;20379;-81
2024/03/13 00:29:50;;;;;;;74.35;26.50;;;3.20;99.90;;;-148.53;100.00;63986.66;5013053;28;20095;-81
2024/03/13 00:32:26;;;;;;;72.00;26.80;;;3.20;99.90;;;-148.53;100.00;63986.66;5039549;28;20375;-81
2024/03/13 00:34:51;;;;;;;75.18;27.73;;;3.20;99.90;;;-148.53;100.00;63986.66;5002631;28;20064;-81
2024/03/13 00:37:17;;;;;;;75.50;27.08;;;3.20;99.90;;;-148.53;100.00;63986.66;5024682;28;20037;-80
2024/03/13 00:39:43;;;;;;;86.30;28.45;;;3.20;99.90;;;-148.53;100.00;63986.66;5023310;28;20041;-80
2024/03/13 00:42:13;;;;;;;77.38;28.33;;;3.20;99.90;;;-148.53;100.00;63986.66;5024474;28;20030;-80
2024/03/13 00:44:40;;;;;;;78.93;27.65;;;3.00;99.90;;;-148.53;100.00;63986.66;5016538;28;20033;-81
2024/03/13 00:47:08;;;;;;;72.43;28.20;;;2.90;99.90;;;-148.53;100.00;63986.66;5029730;28;20401;-82
2024/03/13 00:49:36;;;;;;;69.97;27.80;;;2.90;99.90;;;-148.53;100.00;63986.66;5025798;28;20295;-81
2024/03/13 00:52:02;;;;;;;65.60;26.38;;;2.90;99.90;;;-148.53;100.00;63986.66;5021152;28;20038;-80
2024/03/13 00:54:28;;;;;;;72.43;26.15;;;2.80;99.90;;;-148.53;100.00;63986.66;5017763;28;20361;-80
2024/03/13 00:56:56;;;;;;;68.43;25.20;;;2.80;99.90;;;-148.53;100.00;63986.66;5033847;28;20030;-81
2024/03/13 00:59:23;;;;;;;75.47;28.23;;;2.80;99.90;;;-148.53;100.00;63986.66;5019008;28;20127;-81
2024/03/13 01:01:50;;;;;;;73.45;26.67;;;2.90;99.90;;;-148.53;100.00;63986.66;5023281;28;20033;-81
2024/03/13 01:04:16;;;;;;;75.55;27.27;;;2.90;99.90;;;-148.53;100.00;63986.66;5029286;28;20041;-80
2024/03/13 01:06:43;;;;;;;75.20;27.50;;;3.00;99.90;;;-148.53;100.00;63986.66;5018406;28;20046;-80
2024/03/13 01:09:15;;;;;;;79.95;26.40;;;3.10;99.90;;;-148.53;100.00;63986.66;5034022;28;20437;-80
2024/03/13 01:11:41;;;;;;;72.68;26.08;;;3.10;99.90;;;-148.53;100.00;63986.66;5017469;28;20102;-80
2024/03/13 01:14:07;;;;;;;77.25;27.10;;;3.10;99.90;;;-148.53;100.00;63986.66;5016705;28;20129;-81
2024/03/13 01:16:34;;;;;;;80.85;26.98;;;3.00;99.90;;;-148.53;100.00;63986.66;5015141;28;20906;-81
2024/03/13 01:18:59;;;;;;;79.40;28.48;;;2.90;99.90;;;-148.53;100.00;63986.66;5028446;28;20029;-80
2024/03/13 01:21:25;;;;;;;73.55;26.67;;;2.90;99.90;;;-148.53;100.00;63986.66;5020110;28;20077;-80
2024/03/13 01:23:51;;;;;;;78.63;26.90;;;2.80;99.90;;;-148.53;100.00;63986.66;5027857;28;20052;-80
2024/03/13 01:26:17;;;;;;;82.50;28.63;;;2.80;99.90;;;-148.53;100.00;63986.66;5011985;28;20042;-80
2024/03/13 01:28:43;;;;;;;66.38;25.38;;;2.80;99.90;;;-148.53;100.00;63986.66;5014788;28;20046;-80
2024/03/13 01:31:09;;;;;;;73.82;26.33;;;2.80;99.90;;;-148.53;100.00;63986.66;5022654;28;20037;-80
2024/03/13 01:33:38;;;;;;;77.57;26.27;;;2.80;99.90;;;-148.53;100.00;63986.66;5014191;28;20040;-80
2024/03/13 01:36:08;;;;;;;77.55;26.83;;;2.70;99.90;;;-148.53;100.00;63986.66;5014803;28;20050;-80
2024/03/13 01:38:34;;;;;;;82.47;27.65;;;2.70;99.90;;;-148.53;100.00;63986.66;5025556;28;20041;-80
2024/03/13 01:55:06;;;;;;;85.30;27.92;;;2.70;99.90;;;-148.53;100.00;63986.66;5016184;28;20042;-81
2024/03/13 01:57:45;;;;;;;86.43;28.27;;;2.70;99.90;;;-148.53;100.00;63986.66;5020502;28;20113;-81
2024/03/13 02:02:56;;;;;;;84.45;26.13;;;2.40;99.90;;;-148.53;100.00;63986.66;5022197;28;20040;-81
2024/03/13 02:05:21;;;;;;;74.25;23.05;;;2.10;99.90;;;-148.53;100.00;63986.66;5030906;28;20052;-80
2024/03/13 02:07:48;;;;;;;83.85;26.48;;;1.90;99.90;;;-148.53;100.00;63986.66;5032350;28;20584;-81
2024/03/13 02:10:14;;;;;;;97.18;28.42;;;1.70;99.90;;;-148.53;100.00;63986.66;5023072;28;20033;-80
2024/03/13 02:13:04;;;;;;;93.40;27.75;;;2.00;99.90;;;-148.53;100.00;63986.66;5023353;28;20528;-81
2024/03/13 02:15:29;;;;;;;92.93;29.08;;;2.20;99.90;;;-148.53;100.00;63986.66;5039919;28;20030;-80
2024/03/13 02:17:55;;;;;;;89.20;27.75;;;2.40;99.90;;;-148.53;100.00;63986.66;5037201;28;20499;-80
2024/03/13 02:20:24;;;;;;;84.38;27.23;;;2.60;99.90;;;-148.53;100.00;63986.66;5027365;28;20429;-79
2024/03/13 02:23:04;;;;;;;90.53;29.92;;;2.70;99.90;;;-148.53;100.00;63986.66;5020796;28;20536;-80
2024/03/13 02:25:34;;;;;;;96.25;29.08;;;2.80;99.90;;;-148.53;100.00;63986.66;5022295;28;20124;-81
2024/03/13 02:28:00;;;;;;;100.38;28.95;;;2.90;99.90;;;-148.53;100.00;63986.66;5025841;28;20038;-80
2024/03/13 02:30:27;;;;;;;93.18;29.85;;;2.90;99.90;;;-148.53;100.00;63986.66;5040289;28;20351;-79
2024/03/13 02:32:55;;;;;;;94.22;28.63;;;3.10;99.90;;;-148.53;100.00;63986.66;5024104;28;20489;-79
2024/03/13 02:35:21;;;;;;;87.05;28.95;;;3.20;99.90;;;-148.53;100.00;63986.66;5023253;28;20045;-80
2024/03/13 02:37:47;;;;;;;93.55;28.58;;;3.40;99.90;;;-148.53;100.00;63986.66;5026085;28;20071;-80
2024/03/13 02:40:16;;;;;;;93.10;30.05;;;3.40;99.90;;;-148.53;100.00;63986.66;5020258;28;20061;-80
2024/03/13 02:42:45;;;;;;;87.90;28.55;;;3.40;99.90;;;-148.53;100.00;63986.66;5026699;28;20481;-81
2024/03/13 02:45:14;;;;;;;86.03;27.40;;;3.30;99.90;;;-148.53;100.00;63986.66;5027482;28;20029;-81
2024/03/13 02:47:44;;;;;;;95.28;29.00;;;3.10;99.90;;;-148.53;100.00;63986.66;5021854;28;20037;-80
2024/03/13 02:50:12;;;;;;;93.00;29.70;;;3.00;99.90;;;-148.53;100.00;63986.66;5028403;28;20137;-79
2024/03/13 02:52:39;;;;;;;;;;;2.90;99.90;;;-148.53;100.00;63986.66;5011995;28;20061;-80
2024/03/13 02:55:06;;;;;;;87.85;27.60;;;3.00;99.90;;;-148.53;100.00;63986.66;5029395;28;19917;-80
2024/03/13 02:57:32;;;;;;;87.97;28.08;;;3.00;99.90;;;-148.53;100.00;63986.66;5025345;28;20037;-80
2024/03/13 02:59:58;;;;;;;88.43;27.73;;;3.10;99.90;;;-148.53;100.00;63986.66;5023633;28;20045;-80
2024/03/13 03:02:24;;;;;;;93.03;28.98;;;3.10;99.90;;;-148.53;100.00;63986.66;5033096;28;20045;-80
2024/03/13 03:04:51;;;;;;;90.53;29.35;;;3.10;99.90;;;-148.53;100.00;63986.66;5014281;28;20105;-81
2024/03/13 03:07:17;;;;;;;97.90;29.60;;;3.00;99.90;;;-148.53;100.00;63986.66;5024963;28;20050;-80
2024/03/13 03:09:43;;;;;;;109.80;31.25;;;3.00;99.90;;;-148.53;100.00;63986.66;5019164;28;20371;-80
2024/03/13 03:12:12;;;;;;;90.68;28.67;;;3.10;99.90;;;-148.53;100.00;63986.66;5027277;28;20052;-81
2024/03/13 03:14:41;;;;;;;87.28;30.20;;;3.10;99.90;;;-148.53;100.00;63986.66;5026014;28;20042;-81
2024/03/13 03:17:07;;;;;;;92.93;28.70;;;3.00;99.90;;;-148.53;100.00;63986.66;5024142;28;20034;-81
2024/03/13 03:19:36;;;;;;;87.13;27.58;;;2.90;99.90;;;-148.53;100.00;63986.66;5029556;28;20132;-80
2024/03/13 03:22:03;;;;;;;80.95;27.55;;;2.80;99.90;;;-148.53;100.00;63986.66;5038497;28;20040;-79
2024/03/13 03:24:31;;;;;;;98.82;30.15;;;2.70;99.90;;;-148.53;100.00;63986.66;5024655;28;20041;-79
2024/03/13 03:27:00;;;;;;;91.57;30.13;;;2.80;99.90;;;-148.53;100.00;63986.66;5036435;28;20038;-82
2024/03/13 03:29:27;;;;;;;92.18;29.05;;;2.80;99.90;;;-148.53;100.00;63986.66;5021488;28;20038;-82
2024/03/13 03:31:54;;;;;;;98.87;30.23;;;2.90;99.90;;;-148.53;100.00;63986.66;5013008;28;20037;-82
2024/03/13 03:34:20;;;;;;;98.88;30.50;;;2.80;99.90;;;-148.53;100.00;63986.66;5016854;28;20033;-82
2024/03/13 03:36:46;;;;;;;93.95;28.67;;;2.70;99.90;;;-148.53;100.00;63986.66;5022363;28;20037;-82
2024/03/13 03:39:14;;;;;;;89.30;27.80;;;2.60;99.90;;;-148.53;100.00;63986.66;5019770;28;20060;-81
2024/03/13 03:41:46;;;;;;;104.47;30.48;;;2.60;99.90;;;-148.53;100.00;63986.66;5016259;28;20034;-81
2024/03/13 03:44:12;;;;;;;96.15;28.83;;;2.80;99.90;;;-148.53;100.00;63986.66;5035243;28;20044;-81
2024/03/13 03:46:40;;;;;;;95.38;29.60;;;3.00;99.90;;;-148.53;100.00;63986.66;5018120;28;20473;-81
2024/03/13 03:49:08;;;;;;;95.55;29.38;;;3.10;99.90;;;-148.53;100.00;63986.66;5013963;28;20052;-81
2024/03/13 03:51:34;;;;;;;101.70;29.10;;;3.10;99.90;;;-148.53;100.00;63986.66;5034269;28;20466;-79
2024/03/13 03:54:01;;;;;;;92.57;29.65;;;3.10;99.90;;;-148.53;100.00;63986.66;5013213;28;20038;-80
2024/03/13 03:56:27;;;;;;;86.07;27.75;;;3.10;99.90;;;-148.53;100.00;63986.66;5020335;28;20033;-80
2024/03/13 03:58:56;;;;;;;92.43;30.23;;;3.10;99.90;;;-148.53;100.00;63986.66;5013883;28;20235;-80
2024/03/13 04:01:24;;;;;;;89.18;27.70;;;3.10;99.90;;;-148.53;100.00;63986.66;5028571;28;20060;-80
2024/03/13 04:03:51;;;;;;;87.00;28.83;;;3.20;99.90;;;-148.53;100.00;63986.66;5022020;28;20117;-80
2024/03/13 04:06:17;;;;;;;92.30;29.30;;;3.20;99.90;;;-148.53;100.00;63986.66;5021699;28;20100;-78
2024/03/13 04:08:44;;;;;;;96.28;28.48;;;3.10;99.90;;;-148.53;100.00;63986.66;5022297;28;20116;-80
2024/03/13 04:11:13;;;;;;;95.05;27.88;;;3.00;99.90;;;-148.53;100.00;63986.66;5029112;28;20037;-79
2024/03/13 04:13:40;;;;;;;87.57;27.95;;;3.00;99.90;;;-148.53;100.00;63986.66;5021911;28;20880;-80
2024/03/13 04:16:07;;;;;;;91.20;27.85;;;3.00;99.90;;;-148.53;100.00;63986.66;5013379;28;20029;-80
2024/03/13 04:18:36;;;;;;;85.13;28.00;;;3.00;99.90;;;-148.53;100.00;63986.66;5023827;28;20107;-80
2024/03/13 04:21:03;;;;;;;79.88;26.83;;;3.00;99.90;;;-148.53;100.00;63986.66;5019060;28;20037;-80
2024/03/13 04:23:31;;;;;;;86.03;30.25;;;2.90;99.90;;;-148.53;100.00;63986.66;5019003;28;20081;-80
2024/03/13 04:26:02;;;;;;;81.15;27.83;;;3.00;99.90;;;-148.53;100.00;63986.66;5019714;28;20030;-81
2024/03/13 04:28:28;;;;;;;84.57;28.40;;;3.00;99.90;;;-148.53;100.00;63986.66;5020039;28;20490;-82
2024/03/13 04:30:54;;;;;;;82.72;27.38;;;3.10;99.90;;;-148.53;100.00;63986.66;5024091;28;20071;-80
2024/03/13 04:33:20;;;;;;;91.10;29.20;;;3.10;99.90;;;-148.53;100.00;63986.66;5035064;28;20398;-80
2024/03/13 04:35:46;;;;;;;92.72;28.95;;;3.20;99.90;;;-148.53;100.00;63986.66;5023947;28;20030;-81
2024/03/13 04:38:15;;;;;;;87.78;27.52;;;3.20;99.90;;;-148.53;100.00;63986.66;5030911;28;20397;-80
2024/03/13 04:40:42;;;;;;;89.38;29.52;;;3.20;99.90;;;-148.53;100.00;63986.66;5019185;28;20029;-80
2024/03/13 04:43:08;;;;;;;91.17;30.30;;;3.30;99.90;;;-148.53;100.00;63986.66;5033063;28;20033;-80
2024/03/13 04:45:37;;;;;;;88.40;27.48;;;3.40;99.90;;;-148.53;100.00;63986.66;5015795;28;20381;-80
2024/03/13 04:48:05;;;;;;;92.47;30.08;;;3.60;99.90;;;-148.53;100.00;63986.66;5019686;28;20045;-82
2024/03/13 04:50:33;;;;;;;83.25;28.55;;;3.60;99.90;;;-148.53;100.00;63986.66;5015079;28;20473;-80
2024/03/13 04:52:59;;;;;;;85.65;30.20;;;3.50;99.90;;;-148.53;100.00;63986.66;5015339;28;20132;-81
2024/03/13 04:55:25;;;;;;;83.97;28.80;;;3.50;99.90;;;-148.53;100.00;63986.66;5037021;28;20458;-81
2024/03/13 04:57:52;;;;;;;85.57;29.02;;;3.40;99.90;;;-148.53;100.00;63986.66;5015350;28;20041;-81
2024/03/13 05:00:17;;;;;;;82.70;28.58;;;3.40;99.90;;;-148.53;100.00;63986.66;5025530;28;20034;-78
2024/03/13 05:02:44;;;;;;;89.35;29.05;;;3.40;99.90;;;-148.53;100.00;63986.66;5033760;28;20477;-79
2024/03/13 05:05:12;;;;;;;90.50;28.70;;;3.50;99.90;;;-148.53;100.00;63986.66;5017897;28;20375;-79
2024/03/13 05:07:39;;;;;;;85.20;28.52;;;3.50;99.90;;;-148.53;100.00;63986.66;5028094;28;20048;-79
2024/03/13 05:10:06;;;;;;;89.97;29.15;;;3.50;99.90;;;-148.53;100.00;63986.66;5020763;28;20054;-78
2024/03/13 05:12:36;;;;;;;90.80;30.92;;;3.50;99.90;;;-148.53;100.00;63986.66;5026705;28;20123;-81
2024/03/13 05:15:06;;;;;;;83.45;29.77;;;3.60;99.90;;;-148.53;100.00;63986.66;5024885;28;20037;-82
2024/03/13 05:17:36;;;;;;;89.75;29.25;;;3.50;99.90;;;-148.53;100.00;63986.66;5013554;28;20064;-81
2024/03/13 05:20:06;;;;;;;88.65;28.85;;;3.50;99.90;;;-148.53;100.00;63986.66;5026985;28;20038;-80
2024/03/13 05:22:35;;;;;;;86.10;29.65;;;3.50;99.90;;;-148.53;100.00;63986.66;5026519;28;20030;-82
2024/03/13 05:25:02;;;;;;;88.07;29.73;;;3.50;99.90;;;-148.53;100.00;63986.66;5011136;28;20044;-80
2024/03/13 05:27:27;;;;;;;89.40;29.13;;;3.50;99.90;;;-148.53;100.00;63986.66;5033689;28;20053;-80
2024/03/13 05:29:53;;;;;;;90.75;30.05;;;3.50;99.90;;;-148.53;100.00;63986.66;5021706;28;20037;-80
2024/03/13 05:32:19;;;;;;;90.13;29.25;;;3.40;99.90;;;-148.53;100.00;63986.66;5012455;28;20050;-79
2024/03/13 05:34:45;;;;;;;84.22;27.90;;;3.40;99.90;;;-148.53;100.00;63986.66;5017070;28;20045;-81
2024/03/13 05:37:12;;;;;;;86.63;29.05;;;3.30;99.90;;;-148.53;100.00;63986.66;5024168;28;20147;-81
2024/03/13 05:39:38;;;;;;;92.07;29.87;;;3.40;99.90;;;-148.53;100.00;63986.66;5024008;28;20040;-80
2024/03/13 05:42:04;;;;;;;92.40;29.48;;;3.40;99.90;;;-148.53;100.00;63986.66;5022501;28;20042;-81
2024/03/13 05:44:30;;;;;;;84.82;29.58;;;3.40;99.90;;;-148.53;100.00;63986.66;5004640;28;20088;-81
2024/03/13 05:46:56;;;;;;;93.35;29.50;;;3.50;99.90;;;-148.53;100.00;63986.66;5012797;28;20440;-81
2024/03/13 05:49:22;;;;;;;89.65;29.35;;;3.50;99.90;;;-148.53;100.00;63986.66;5015451;28;20041;-83
2024/03/13 05:51:48;;;;;;;93.28;28.98;;;3.50;99.90;;;-148.53;100.00;63986.66;5004588;28;20477;-82
2024/03/13 05:54:14;;;;;;;88.35;28.27;;;3.50;99.90;;;-148.53;100.00;63986.66;5024226;28;20049;-86
2024/03/13 05:56:39;;;;;;;78.30;27.60;;;3.50;99.90;;;-148.53;100.00;63986.66;5022318;28;20045;-86
2024/03/13 05:59:05;;;;;;;82.53;28.15;;;3.50;99.90;;;-148.53;100.00;63986.66;5034154;28;20037;-84
2024/03/13 06:01:32;;;;;;;78.18;28.05;;;3.40;99.90;;;-148.53;100.00;63986.66;5030746;28;20034;-81
2024/03/13 06:03:59;;;;;;;77.15;27.88;;;3.40;99.90;;;-148.53;100.00;63986.66;5019966;28;20056;-85
2024/03/13 06:06:25;;;;;;;81.13;28.33;;;3.40;99.90;;;-148.53;100.00;63986.66;5029468;28;20046;-81
2024/03/13 06:08:51;;;;;;;82.22;26.40;;;3.40;99.90;;;-148.53;100.00;63986.66;5025692;28;20139;-80
2024/03/13 06:11:18;;;;;;;81.57;27.08;;;3.60;99.90;;;-148.53;100.00;63986.66;5026467;28;20400;-79
2024/03/13 06:13:45;;;;;;;85.88;26.83;;;3.80;99.90;;;-148.53;100.00;63986.66;5027102;28;20063;-80
2024/03/13 06:16:11;;;;;;;81.88;26.70;;;3.90;99.90;;;-148.53;100.00;63986.66;5014626;28;20034;-81
2024/03/13 06:18:37;;;;;;;75.57;27.17;;;3.90;99.90;;;-148.53;100.00;63986.66;5022475;28;20499;-79
2024/03/13 06:21:05;;;;;;;81.55;26.02;;;4.00;99.90;;;-148.53;100.00;63986.66;5020220;28;20029;-77
2024/03/13 06:23:30;;;;;;;76.38;25.70;;;4.00;99.90;;;-148.53;100.00;63986.66;5024134;28;20048;-79
2024/03/13 06:25:59;;;;;;;76.40;25.80;;;4.10;99.90;;;-148.53;100.00;63986.66;5027936;28;20033;-81
2024/03/13 06:31:09;;;;;;;74.88;26.67;;;4.30;99.90;;;-148.53;100.00;63986.66;5028316;28;20038;-83
2024/03/13 06:33:34;;;;;;;76.97;27.75;;;4.30;99.90;;;-148.53;100.00;63986.66;5011686;28;20429;-76
2024/03/13 06:36:00;;;;;;;77.07;26.52;;;4.40;99.90;;;-148.53;100.00;63986.66;5013127;28;20032;-77
2024/03/13 06:38:26;;;;;;;74.35;25.83;;;4.50;99.90;;;-148.53;100.00;63986.66;5022892;28;20041;-77
2024/03/13 06:40:52;;;;;;;74.85;26.75;;;4.60;99.90;;;-148.53;100.00;63986.66;5021622;28;20120;-77
2024/03/13 06:43:18;;;;;;;74.95;26.50;;;4.70;99.90;;;-148.53;100.00;63986.66;5023272;28;20041;-76
2024/03/13 06:45:47;;;;;;;71.93;26.40;;;4.90;99.90;;;-148.53;100.00;63986.66;5022939;28;20037;-79
2024/03/13 06:48:13;;;;;;;73.35;25.88;;;4.90;99.90;;;-148.53;100.00;63986.66;5031168;28;20074;-78
2024/03/13 06:50:39;;;;;;;74.55;27.52;;;5.00;99.90;;;-148.53;100.00;63986.66;5028498;28;20033;-79
2024/03/13 06:53:05;;;;;;;67.00;24.23;;;5.00;99.90;;;-148.53;100.00;63986.66;5018051;28;20493;-79
2024/03/13 06:55:31;;;;;;;77.10;26.42;;;5.10;99.90;;;-148.53;100.00;63986.66;5009293;28;20103;-79
2024/03/13 06:57:57;;;;;;;68.47;25.88;;;5.10;99.90;;;-148.53;100.00;63986.66;5023470;28;20427;-78
2024/03/13 07:00:27;;;;;;;60.10;24.08;;;5.20;99.90;;;-148.53;100.00;63986.66;5036066;28;20037;-79
2024/03/13 07:02:55;;;;;;;62.45;23.55;;;5.30;99.90;;;-148.53;100.00;63986.66;5021964;28;20025;-79
2024/03/13 07:05:22;;;;;;;57.28;23.40;;;5.40;99.90;;;-148.53;100.00;63986.66;5017811;28;20132;-78
2024/03/13 07:07:49;;;;;;;59.63;23.63;;;5.60;99.90;;;-148.53;100.00;63986.66;5031571;28;20038;-78
2024/03/13 07:10:15;;;;;;;57.22;22.92;;;5.70;99.90;;;-148.53;100.00;63986.66;5014571;28;20370;-77
2024/03/13 07:12:41;;;;;;;52.50;22.13;;;5.80;99.90;;;-148.53;100.00;63986.66;5017391;28;20048;-77
2024/03/13 07:15:09;;;;;;;46.50;21.10;;;6.00;99.90;;;-148.53;100.00;63986.66;5043395;28;20035;-79
2024/03/13 07:17:36;;;;;;;49.60;20.80;;;6.10;99.90;;;-148.53;100.00;63986.66;5021658;28;20956;-78
2024/03/13 07:20:13;;;;;;;46.28;20.75;;;6.20;99.90;;;-148.53;100.00;63986.66;5016553;28;20065;-77
2024/03/13 07:22:39;;;;;;;43.95;19.33;;;6.30;99.90;;;-148.53;100.00;63986.66;5025099;28;20039;-78
2024/03/13 07:25:09;;;;;;;41.28;18.90;;;6.40;99.90;;;-148.53;100.00;63986.66;5032286;28;20041;-77
2024/03/13 07:27:38;;;;;;;36.72;16.98;;;6.50;99.90;;;-148.53;100.00;63986.66;5020216;28;20049;-78
2024/03/13 07:30:05;;;;;;;37.33;16.23;;;6.70;99.90;;;-148.53;100.00;63986.66;5031477;28;20038;-77
2024/03/13 07:32:34;;;;;;;36.50;16.73;;;6.80;99.90;;;-148.53;100.00;63986.66;5031858;28;20045;-78
2024/03/13 07:35:01;;;;;;;33.30;15.70;;;6.90;99.90;;;-148.53;100.00;63986.66;5024412;28;20528;-79
2024/03/13 07:37:27;;;;;;;32.97;15.95;;;7.00;99.90;;;-148.53;100.00;63986.66;5038217;28;20069;-78
2024/03/13 07:39:53;;;;;;;32.38;14.75;;;7.10;99.90;;;-148.53;100.00;63986.66;5032191;28;20065;-79
2024/03/13 07:42:19;;;;;;;27.50;13.38;;;7.20;99.90;;;-148.53;100.00;63986.66;5018636;28;20378;-79
2024/03/13 07:44:47;;;;;;;25.30;13.75;;;7.30;99.90;;;-148.53;100.00;63986.66;5019503;28;20034;-78
2024/03/13 07:47:13;;;;;;;29.45;13.70;;;7.40;99.90;;;-148.53;100.00;63986.66;5022545;28;20136;-77
2024/03/13 07:49:40;;;;;;;28.80;13.27;;;7.50;99.90;;;-148.53;100.00;63986.66;5038210;28;20044;-78
2024/03/13 07:52:06;;;;;;;23.80;12.90;;;7.60;99.90;;;-148.53;100.00;63986.66;5027492;28;20030;-78
2024/03/13 07:54:32;;;;;;;25.58;12.98;;;7.70;99.90;;;-148.53;100.00;63986.66;5023477;28;20079;-78
2024/03/13 07:56:58;;;;;;;23.80;12.77;;;7.80;99.90;;;-148.53;100.00;63986.66;5019847;28;20428;-79
2024/03/13 07:59:25;;;;;;;25.20;12.57;;;8.00;99.90;;;-148.53;100.00;63986.66;5029372;28;20038;-80
2024/03/13 08:01:53;;;;;;;25.42;11.60;;;8.10;99.90;;;-148.53;100.00;63986.66;5020512;28;20488;-78
2024/03/13 08:04:21;;;;;;;20.10;10.95;;;8.20;99.90;;;-148.53;100.00;63986.66;5023503;28;20038;-77
2024/03/13 08:06:47;;;;;;;19.48;10.38;;;8.40;99.90;;;-148.53;100.00;63986.66;5013099;28;20077;-77
2024/03/13 08:09:12;;;;;;;21.17;10.75;;;8.50;99.90;;;-148.53;100.00;63986.66;5018368;28;20052;-79
2024/03/13 08:11:38;;;;;;;19.45;9.82;;;8.60;99.90;;;-148.53;100.00;63986.66;5020560;28;20042;-79
2024/03/13 08:14:04;;;;;;;17.55;9.55;;;8.70;99.90;;;-148.53;100.00;63986.66;5015966;28;20033;-77
2024/03/13 08:16:30;;;;;;;16.40;9.93;;;8.80;99.90;;;-148.53;100.00;63986.66;5012520;28;20038;-79
2024/03/13 08:18:57;;;;;;;20.38;10.20;;;8.80;99.90;;;-148.53;100.00;63986.66;5035628;28;20161;-77
2024/03/13 08:21:24;;;;;;;17.90;8.80;;;8.90;99.90;;;-148.53;100.00;63986.66;5012774;28;20050;-77
2024/03/13 08:23:51;;;;;;;17.80;9.25;;;;;;;-148.53;100.00;63986.66;5013783;28;20030;-77
2024/03/13 08:26:18;;;;;;;16.50;8.15;;;;;;;-148.53;100.00;63986.66;5029565;28;20045;-77
2024/03/13 08:28:44;;;;;;;16.23;8.10;;;;;;;-148.53;100.00;63986.66;5025842;28;20056;-81
2024/03/13 08:31:16;;;;;;;14.20;8.07;;;;;;;-148.53;100.00;63986.66;5025863;28;20068;-76
2024/03/13 08:33:43;;;;;;;15.05;7.80;;;9.00;99.90;;;-148.53;100.00;63986.66;5018255;28;20567;-76
2024/03/13 08:36:08;;;;;;;14.80;7.85;;;9.70;99.90;;;-148.53;100.00;63986.66;5020983;28;20048;-80
2024/03/13 08:38:34;;;;;;;16.08;8.43;;;9.90;99.90;;;-148.53;100.00;63986.66;5032676;28;20025;-77
2024/03/13 08:41:00;;;;;;;14.75;7.80;;;10.00;99.90;;;-148.53;100.00;63986.66;5028840;28;20389;-77
2024/03/13 08:43:26;;;;;;;15.85;8.25;;;10.00;99.90;;;-148.53;100.00;63986.66;5030075;28;20025;-78
2024/03/13 08:45:52;;;;;;;13.50;7.07;;;10.00;99.90;;;-148.53;100.00;63986.66;5024558;28;20433;-78
2024/03/13 08:48:19;;;;;;;14.50;8.20;;;10.00;99.90;;;-148.53;100.00;63986.66;5021052;28;20052;-79
2024/03/13 08:50:44;;;;;;;14.10;8.05;;;10.20;99.90;;;-148.53;100.00;63986.66;5041681;28;20486;-77
2024/03/13 08:53:14;;;;;;;13.82;7.97;;;10.10;99.90;;;-148.53;100.00;63986.66;5039777;28;20042;-77
2024/03/13 08:55:40;;;;;;;15.52;8.07;;;10.30;99.90;;;-148.53;100.00;63986.66;5016818;28;20064;-79
2024/03/13 08:58:06;;;;;;;13.35;7.15;;;10.20;99.90;;;-148.53;100.00;63986.66;5032435;28;20631;-78
2024/03/13 09:00:32;;;;;;;16.52;8.45;;;10.20;99.90;;;-148.53;100.00;63986.66;5013774;28;20121;-77
2024/03/13 09:03:00;;;;;;;14.35;8.48;;;10.50;99.90;;;-148.53;100.00;63986.66;5030030;28;20033;-76
2024/03/13 09:05:29;;;;;;;13.68;7.55;;;10.70;99.90;;;-148.53;100.00;63986.66;5035802;28;20054;-77
2024/03/13 09:07:55;;;;;;;14.68;7.90;;;10.70;99.90;;;-148.53;100.00;63986.66;5029801;28;20045;-78
2024/03/13 09:10:22;;;;;;;13.93;7.20;;;10.70;99.90;;;-148.53;100.00;63986.66;5013153;28;20038;-77
2024/03/13 09:12:50;;;;;;;16.45;7.78;;;10.60;99.90;;;-148.53;100.00;63986.66;5027937;28;20043;-79
2024/03/13 09:15:16;;;;;;;13.73;7.78;;;10.70;99.90;;;-148.53;100.00;63986.66;5021835;28;20486;-76
2024/03/13 09:17:41;;;;;;;15.50;7.65;;;10.60;99.90;;;-148.53;100.00;63986.66;5027964;28;20044;-77
2024/03/13 09:20:08;;;;;;;13.13;7.35;;;10.70;99.90;;;-148.53;100.00;63986.66;5019550;28;20040;-77
2024/03/13 09:22:33;;;;;;;14.30;7.97;;;10.60;99.90;;;-148.53;100.00;63986.66;5016053;28;20042;-77
2024/03/13 09:24:59;;;;;;;14.32;7.75;;;10.60;99.90;;;-148.53;100.00;63986.66;5033765;28;20111;-78
2024/03/13 09:27:25;;;;;;;14.85;8.00;;;;;;;-148.53;100.00;63986.66;5032495;28;20072;-78
2024/03/13 09:29:54;;;;;;;14.68;8.38;;;;;;;-148.53;100.00;63986.66;5036159;28;20483;-77
2024/03/13 09:32:23;;;;;;;17.15;8.70;;;;;;;-148.53;100.00;63986.66;5023436;28;20030;-78
2024/03/13 09:34:51;;;;;;;15.43;8.45;;;;;;;-148.53;100.00;63986.66;5022516;28;20034;-77
2024/03/13 09:37:19;;;;;;;13.88;8.07;;;10.80;99.90;;;-148.53;100.00;63986.66;5039044;28;20087;-78
2024/03/13 09:39:45;;;;;;;;;;;;;;;-148.53;100.00;63986.66;5026481;28;20072;-79
2024/03/13 09:42:17;;;;;;;11.63;6.40;;;11.30;99.90;;;-148.53;100.00;63986.66;5022857;28;19971;-78
2024/03/13 09:44:46;;;;;;;15.35;8.18;;;11.20;99.90;;;-148.53;100.00;63986.66;5012789;28;20036;-77
2024/03/13 09:47:13;;;;;;;15.55;8.07;;;11.10;99.90;;;-148.53;100.00;63986.66;5025075;28;20436;-79
2024/03/13 09:49:44;;;;;;;14.98;8.27;;;11.10;99.90;;;-148.53;100.00;63986.66;5031190;28;20522;-78
2024/03/13 09:52:15;;;;;;;14.98;8.02;;;11.20;99.90;;;-148.53;100.00;63986.66;5016512;28;20044;-78
2024/03/13 09:54:43;;;;;;;13.95;7.90;;;11.10;99.90;;;-148.53;100.00;63986.66;5019244;28;20100;-78
2024/03/13 09:57:10;;;;;;;13.05;7.88;;;11.20;99.90;;;-148.53;100.00;63986.66;5018234;28;20034;-77
2024/03/13 09:59:37;;;;;;;15.48;8.65;;;11.20;99.90;;;-148.53;100.00;63986.66;5027782;28;20104;-77
2024/03/13 10:02:18;;;;;;;13.43;8.10;;;11.30;99.90;;;-148.53;100.00;63986.66;5012587;28;20042;-77
2024/03/13 10:04:48;;;;;;;14.73;8.13;;;11.40;99.90;;;-148.53;100.00;63986.66;5019916;28;20317;-77
2024/03/13 10:07:21;;;;;;;13.88;7.93;;;11.40;99.90;;;-148.53;100.00;63986.66;5014860;28;20055;-78
2024/03/13 10:09:47;;;;;;;14.38;8.50;;;11.40;99.90;;;-148.53;100.00;63986.66;5033907;28;20044;-77
2024/03/13 10:12:21;;;;;;;14.18;7.97;;;11.60;99.90;;;-148.53;100.00;63986.66;5031529;28;20132;-77
2024/03/13 10:14:50;;;;;;;14.13;8.77;;;11.60;99.90;;;-148.53;100.00;63986.66;5031481;28;20040;-77